This is the latest recevied weather packets stored in our database for station/object WX4TAZ. If no packets are shown the sender has not sent any weather packets the latest 10 day(s).
| Time | Temp. | Humidity | Pressure | Rain* | Wind** | Luminosity | Snow |
|---|---|---|---|---|---|---|---|
| 1778052362 | 6.11° C | 37% | 1014.6 hPa | 0 mm | - | - | - |
| 1778051162 | 6.67° C | 37% | 1014.7 hPa | 0 mm | - | - | - |
| 1778050563 | 6.67° C | 37% | 1014.8 hPa | 0 mm | - | - | - |
| 1778049963 | 6.67° C | 37% | 1014.8 hPa | 0 mm | - | - | - |
| 1778040962 | 7.78° C | 34% | 1013.5 hPa | 0 mm | - | - | - |
| 1778025962 | 11.67° C | 23% | 1011.4 hPa | 0 mm | - | - | - |
| 1778015763 | 13.33° C | 22% | 1011.1 hPa | 0 mm | - | - | - |
| 1778014264 | 13.33° C | 24% | 1011.1 hPa | 0 mm | - | - | - |
| 1778012163 | 13.33° C | 24% | 1011.5 hPa | 0 mm | - | - | - |
| 1778010363 | 13.33° C | 22% | 1011.5 hPa | 0 mm | - | - | - |
| 1777996864 | 10° C | 44% | 1012.2 hPa | 0 mm | - | - | - |
| 1777993264 | 8.33° C | 51% | 1011.7 hPa | 0 mm | - | - | - |
| 1777985464 | 7.78° C | 55% | 1010.4 hPa | 0 mm | - | - | - |
| 1777983063 | 7.22° C | 58% | 1009.6 hPa | 0 mm | - | - | - |
| 1777977963 | 7.78° C | 56% | 1009.6 hPa | 0 mm | - | - | - |
| 1777977363 | 8.33° C | 56% | 1009.7 hPa | 0 mm | - | - | - |
| 1777973464 | 8.33° C | 58% | 1009.2 hPa | 0 mm | - | - | - |
| 1777967463 | 8.33° C | 62% | 1007.9 hPa | 0 mm | - | - | - |
| 1777954863 | 11.67° C | 36% | 1007.9 hPa | 0 mm | - | - | - |
| 1777952463 | 12.22° C | 32% | 1007.4 hPa | 0 mm | - | - | - |
| 1777947664 | 13.33° C | 31% | 1006.5 hPa | 0 mm | - | - | - |
| 1777944963 | 14.44° C | 29% | 1006.1 hPa | 0 mm | - | - | - |
| 1777941963 | 17.22° C | 24% | 1004.9 hPa | 0 mm | - | - | - |
| 1777934463 | 22.22° C | 17% | 1002.7 hPa | 0 mm | - | - | - |
| 1777933263 | 22.78° C | 16% | 1002.5 hPa | 0 mm | - | - | - |
* Rain latest hour (hover to see other rain measurements)
** Current wind speed in m/s (hover to see current wind gust speed)